Wednesday, February 20, 2019, 2:45 PM EST
Back to Local

KMTP, Montauk Airport

Location: Montauk, NY, United States Lat: 41.067
Local Time: 2:45 PM EST (19:45 GMT) Lon: -71.917
Time Zone: US/Eastern Elev: 6 ft

Show me the last for .
Show Decoded

2019-02-20 13:54 METAR KMTP 201854Z AUTO 20003KT M02/M09 A3052 RMK AO1 SLP336 T10171089 =
2019-02-20 12:54 METAR KMTP 201754Z AUTO VRB03KT M02/M11 A3052 RMK AO1 SLP336 T10171111 11017
                 21039 58032 =
2019-02-20 11:54 METAR KMTP 201654Z AUTO 11004KT M02/M12 A3057 RMK AO1 SLP352 T10221122 =
2019-02-20 10:54 METAR KMTP 201554Z AUTO 09003KT M03/M12 A3061 RMK AO1 SLP364 T10281122 =
2019-02-20 09:54 METAR KMTP 201454Z AUTO 02004KT M03/M13 A3062 RMK AO1 SLP368 T10281128 50006 =
2019-02-20 08:54 METAR KMTP 201354Z AUTO 03003KT M03/M13 A3062 RMK AO1 SLP369 T10331133 $ =
2019-02-20 07:54 METAR KMTP 201254Z AUTO 04004KT M03/M13 A3063 RMK AO1 PRESRR SLP371 T10331133 $
                 =
2019-02-20 06:54 METAR KMTP 201154Z AUTO M04/M13 A3060 RMK AO1 SLP361 T10391133 11033 21044 58006
                 $ =
2019-02-20 05:54 METAR KMTP 201054Z AUTO M04/M14 A3061 RMK AO1 SLP365 T10391139 $ =
2019-02-20 04:54 METAR KMTP 200954Z AUTO 01007KT M04/M12 A3063 RMK AO1 SLP370 T10391122 $ =
2019-02-20 03:54 METAR KMTP 200854Z AUTO M04/M13 A3062 RMK AO1 SLP367 T10441128 53007 $ =
2019-02-20 02:54 METAR KMTP 200754Z AUTO M04/M12 A3060 RMK AO1 SLP363 T10441117 $ =
2019-02-20 01:54 METAR KMTP 200654Z AUTO 33009KT M04/M14 A3060 RMK AO1 SLP361 T10391139 $ =
2019-02-20 00:54 METAR KMTP 200554Z AUTO 34009KT M03/M15 A3059 RMK AO1 SLP359 T10331150 11006
                 21033 53002 =
2019-02-19 23:54 METAR KMTP 200454Z AUTO 34009KT M03/M14 A3059 RMK AO1 SLP357 T10331144 400061050
                 =
2019-02-19 22:54 METAR KMTP 200354Z AUTO 33012KT M03/M15 A3058 RMK AO1 SLP355 T10281150 =
2019-02-19 21:54 METAR KMTP 200254Z AUTO 33014G20KT M02/M14 A3059 RMK AO1 SLP357 T10171144 51015
                 =
2019-02-19 20:54 METAR KMTP 200154Z AUTO 32014G22KT M01/M14 A3058 RMK AO1 SLP355 T10111139 =
2019-02-19 19:54 METAR KMTP 200054Z AUTO 32010G18KT M01/M14 A3057 RMK AO1 SLP350 T10111144 =
2019-02-19 18:54 METAR KMTP 192354Z AUTO 31009G20KT M01/M14 A3054 RMK AO1 SLP342 T10061144 10006
                 21011 53010 =
2019-02-19 17:54 METAR KMTP 192254Z AUTO 32011G18KT M01/M14 A3052 RMK AO1 SLP335 T10061144 =
2019-02-19 16:54 METAR KMTP 192154Z AUTO 30012G19KT M01/M14 A3052 RMK AO1 SLP334 T10061144 =
2019-02-19 15:54 METAR KMTP 192054Z AUTO 30011G17KT 01/M13 A3051 RMK AO1 SLP332 T00061133 53001 =
2019-02-19 14:54 METAR KMTP 191954Z AUTO 31010KT 01/M13 A3050 RMK AO1 SLP328 T00061128 =

Support USWX by starting your Amazon purchase here.